< < Back
Terminal Aerodrome Forecast


Current Version              Previous Versions:   1  2  3  4  5  6  7  8  9  

Terminal Aerodrome Forecast

855
FTUS42 KJAX 241100
TAFSSI
TAF
KSSI 241137Z 2412/2512 34003KT P6SM SCT250
     FM241400 05007KT P6SM FEW030 SCT200
     FM242300 02003KT P6SM FEW250=

Latest METAR

332
SAUS70 KWBC 251100 RRB
MTRSSI
METAR KSSI 251053Z AUTO 00000KT 7SM CLR 09/09 A3000 RMK AO2 SLP158
T00940089


USA.gov is the U.S. government's official web portal to all federal, state and local government web resources and services.